createdAt,value
2022-11-19T00:00:41.974Z,97822.72
2022-11-19T00:06:12.964Z,97830.69
2022-11-19T00:11:55.016Z,97832.50
2022-11-19T00:17:20.025Z,97842.28
2022-11-19T00:22:45.207Z,97843.22
2022-11-19T00:28:13.024Z,97845.94
2022-11-19T00:33:37.004Z,97844.25
2022-11-19T00:39:02.045Z,97856.78
2022-11-19T00:44:34.008Z,97871.66
2022-11-19T00:50:02.009Z,97870.78
2022-11-19T00:55:26.041Z,97862.09
2022-11-19T01:01:01.073Z,97866.72
2022-11-19T01:06:28.010Z,97871.06
2022-11-19T01:11:47.121Z,97888.75
2022-11-19T01:17:15.002Z,97891.38
2022-11-19T01:22:40.029Z,97890.88
2022-11-19T01:28:05.070Z,97883.06
2022-11-19T01:33:33.026Z,97886.91
2022-11-19T01:38:58.994Z,97879.28
2022-11-19T01:44:38.288Z,97881.25
2022-11-19T01:50:06.020Z,97890.16
2022-11-19T01:55:27.033Z,97886.00
2022-11-19T02:00:52.078Z,97885.41
2022-11-19T02:06:21.075Z,97886.34
2022-11-19T02:12:11.020Z,97891.97
2022-11-19T02:17:52.044Z,97894.78
2022-11-19T02:23:50.036Z,97884.34
2022-11-19T02:29:28.033Z,97884.00
2022-11-19T02:35:00.312Z,97881.03
2022-11-19T02:40:32.041Z,97883.91
2022-11-19T02:46:01.067Z,97901.09
2022-11-19T02:51:29.037Z,97904.97
2022-11-19T02:57:05.024Z,97896.56
2022-11-19T03:02:46.074Z,97901.16
2022-11-19T03:08:13.026Z,97905.75
2022-11-19T03:13:59.054Z,97911.31
2022-11-19T03:19:30.033Z,97910.38
2022-11-19T03:25:06.055Z,97921.16
2022-11-19T03:30:32.122Z,97913.41
2022-11-19T03:36:01.041Z,97916.16
2022-11-19T03:41:33.027Z,97922.34
2022-11-19T03:47:04.149Z,97932.84
2022-11-19T03:52:37.180Z,97940.06
2022-11-19T03:58:10.038Z,97943.88
2022-11-19T04:03:35.063Z,97939.09
2022-11-19T04:09:00.037Z,97943.13
2022-11-19T04:14:27.038Z,97946.22
2022-11-19T04:19:52.083Z,97951.81
2022-11-19T04:25:17.112Z,97953.06
2022-11-19T04:30:45.086Z,97953.34
2022-11-19T04:36:09.056Z,97954.59
2022-11-19T04:41:34.069Z,97955.81
2022-11-19T04:47:01.074Z,97950.88
2022-11-19T04:52:26.112Z,97952.72
2022-11-19T04:57:50.089Z,97945.16
2022-11-19T05:03:18.068Z,97959.28
2022-11-19T05:08:42.075Z,97968.25
2022-11-19T05:14:07.055Z,97960.59
2022-11-19T05:19:34.078Z,97968.75
2022-11-19T05:24:59.070Z,97980.19
2022-11-19T05:30:25.078Z,97979.47
2022-11-19T05:35:53.091Z,97984.03
2022-11-19T05:41:17.182Z,97991.28
2022-11-19T05:46:43.119Z,97988.78
2022-11-19T05:52:11.080Z,97994.19
2022-11-19T05:57:36.091Z,97994.47
2022-11-19T06:03:00.124Z,97985.06
2022-11-19T06:08:28.237Z,97984.50
2022-11-19T06:13:54.094Z,97990.88
2022-11-19T06:19:19.571Z,98005.03
2022-11-19T06:24:47.072Z,98013.75
2022-11-19T06:30:12.071Z,97998.00
2022-11-19T06:35:36.119Z,98012.84
2022-11-19T06:41:04.089Z,98023.28
2022-11-19T06:46:29.093Z,98015.34
2022-11-19T06:51:57.101Z,98026.47
2022-11-19T06:57:24.087Z,98041.09
2022-11-19T07:02:49.174Z,98053.13
2022-11-19T07:08:14.371Z,98067.75
2022-11-19T07:13:54.102Z,98068.34
2022-11-19T07:19:22.505Z,98079.34
2022-11-19T07:24:47.212Z,98069.56
2022-11-19T07:30:14.119Z,98072.75
2022-11-19T07:35:33.127Z,98068.13
2022-11-19T07:41:02.126Z,98070.47
2022-11-19T07:46:30.143Z,98064.84
2022-11-19T07:51:55.215Z,98080.44
2022-11-19T07:57:20.157Z,98084.50
2022-11-19T08:02:48.109Z,98091.25
2022-11-19T08:08:12.159Z,98090.00
2022-11-19T08:13:37.166Z,98090.66
2022-11-19T08:19:04.249Z,98087.03
2022-11-19T08:24:31.137Z,98091.28
2022-11-19T08:29:56.141Z,98094.59
2022-11-19T08:35:26.184Z,98095.56
2022-11-19T08:40:51.132Z,98087.84
2022-11-19T08:46:17.161Z,98083.00
2022-11-19T08:51:44.167Z,98077.88
2022-11-19T08:57:09.128Z,98076.09
2022-11-19T09:02:33.169Z,98085.09
2022-11-19T09:08:01.154Z,98092.25
2022-11-19T09:13:25.153Z,98093.34
2022-11-19T09:18:51.422Z,98097.81
2022-11-19T09:24:19.703Z,98087.44
2022-11-19T09:29:45.145Z,98087.69
2022-11-19T09:35:09.153Z,98101.06
2022-11-19T09:40:37.155Z,98088.88
2022-11-19T09:46:14.163Z,98085.69
2022-11-19T09:51:43.172Z,98080.69
2022-11-19T09:57:12.177Z,98070.25
2022-11-19T10:02:37.226Z,98078.50
2022-11-19T10:08:17.177Z,98068.31
2022-11-19T10:13:57.266Z,98064.06
2022-11-19T10:19:35.205Z,98053.75
2022-11-19T10:25:09.168Z,98052.47
2022-11-19T10:30:39.185Z,98044.03
2022-11-19T10:36:07.260Z,98038.91
2022-11-19T10:41:37.343Z,98031.91
2022-11-19T10:47:05.209Z,98038.31
2022-11-19T10:52:40.147Z,98043.25
2022-11-19T10:58:16.161Z,98033.19
2022-11-19T11:03:49.333Z,98036.22
2022-11-19T11:09:16.198Z,98032.44
2022-11-19T11:14:54.220Z,98033.84
2022-11-19T11:20:36.227Z,98028.50
2022-11-19T11:26:15.214Z,98025.41
2022-11-19T11:31:43.177Z,98014.63
2022-11-19T11:37:11.223Z,98013.50
2022-11-19T11:42:39.196Z,98016.50
2022-11-19T11:48:03.181Z,98007.28
2022-11-19T11:53:42.198Z,98014.81
2022-11-19T11:59:06.218Z,98012.94
2022-11-19T12:04:31.220Z,98003.78
2022-11-19T12:10:10.201Z,98003.13
2022-11-19T12:15:48.362Z,97992.50
2022-11-19T12:21:17.210Z,97995.97
2022-11-19T12:26:56.229Z,97989.97
2022-11-19T12:32:36.213Z,97997.88
2022-11-19T12:38:18.228Z,97988.00
2022-11-19T12:44:02.227Z,97977.75
2022-11-19T12:49:48.227Z,97989.66
2022-11-19T12:55:27.234Z,97994.63
2022-11-19T13:01:02.237Z,97987.56
2022-11-19T13:06:33.238Z,97976.53
2022-11-19T13:12:04.251Z,97968.56
2022-11-19T13:17:34.377Z,97961.53
2022-11-19T13:23:03.295Z,97961.69
2022-11-19T13:28:39.218Z,97957.09
2022-11-19T13:34:12.212Z,97960.25
2022-11-19T13:39:43.230Z,97959.09
2022-11-19T13:45:09.240Z,97956.19
2022-11-19T13:50:42.238Z,97954.50
2022-11-19T13:56:19.252Z,97956.78
2022-11-19T14:02:02.274Z,97950.31
2022-11-19T14:07:57.293Z,97951.44
2022-11-19T14:13:39.257Z,97952.78
2022-11-19T14:19:20.578Z,97967.03
2022-11-19T14:25:21.261Z,97963.75
2022-11-19T14:31:16.290Z,97962.03
2022-11-19T14:36:54.270Z,97963.91
2022-11-19T14:42:32.280Z,97966.25
2022-11-19T14:47:57.456Z,97962.84
2022-11-19T14:53:33.232Z,97965.28
2022-11-19T14:59:06.269Z,97964.47
2022-11-19T15:04:32.253Z,97974.63
2022-11-19T15:10:19.279Z,97976.00
2022-11-19T15:15:53.269Z,97960.94
2022-11-19T15:21:36.287Z,97974.38
2022-11-19T15:27:11.272Z,97969.38
2022-11-19T15:32:52.303Z,97973.19
2022-11-19T15:38:23.266Z,97973.72
2022-11-19T15:43:54.270Z,97968.78
2022-11-19T15:49:29.316Z,97957.38
2022-11-19T15:55:00.275Z,97966.22
2022-11-19T16:00:28.283Z,97969.72
2022-11-19T16:05:55.312Z,97977.25
2022-11-19T16:11:38.293Z,97974.47
2022-11-19T16:17:15.279Z,97973.41
2022-11-19T16:22:47.296Z,97968.69
2022-11-19T16:28:15.331Z,97986.22
2022-11-19T16:33:42.301Z,97977.34
2022-11-19T16:39:12.337Z,97983.88
2022-11-19T16:44:39.331Z,97994.28
2022-11-19T16:50:14.302Z,98001.56
2022-11-19T16:56:07.287Z,97991.38
2022-11-19T17:01:32.454Z,97993.41
2022-11-19T17:06:58.399Z,97991.19
2022-11-19T17:12:38.313Z,97989.94
2022-11-19T17:18:02.308Z,97981.59
2022-11-19T17:23:30.331Z,97993.16
2022-11-19T17:29:00.286Z,98001.22
2022-11-19T17:34:32.343Z,98004.19
2022-11-19T17:39:56.471Z,98012.47
2022-11-19T17:45:24.314Z,98010.34
2022-11-19T17:50:48.400Z,98021.38
2022-11-19T17:56:20.497Z,98010.31
2022-11-19T18:01:48.360Z,98015.88
2022-11-19T18:07:12.359Z,98019.81
2022-11-19T18:12:43.370Z,98015.22
2022-11-19T18:18:11.327Z,98013.81
2022-11-19T18:23:35.490Z,98012.56
2022-11-19T18:29:00.392Z,98021.22
2022-11-19T18:34:29.436Z,98028.50
2022-11-19T18:39:54.352Z,98036.63
2022-11-19T18:45:18.319Z,98036.34
2022-11-19T18:50:46.508Z,98031.41
2022-11-19T18:56:10.332Z,98029.00
2022-11-19T19:01:35.417Z,98028.22
2022-11-19T19:07:02.466Z,98036.22
2022-11-19T19:12:28.331Z,98023.31
2022-11-19T19:17:52.365Z,98028.78
2022-11-19T19:23:20.364Z,98032.66
2022-11-19T19:28:44.424Z,98035.56
2022-11-19T19:34:09.436Z,98041.81
2022-11-19T19:39:36.358Z,98037.59
2022-11-19T19:45:01.393Z,98045.78
2022-11-19T19:50:27.464Z,98046.06
2022-11-19T19:56:02.381Z,98049.75
2022-11-19T20:01:30.466Z,98051.66
2022-11-19T20:07:00.436Z,98051.88
2022-11-19T20:12:28.348Z,98051.88
2022-11-19T20:17:59.493Z,98052.94
2022-11-19T20:23:24.392Z,98052.19
2022-11-19T20:28:51.376Z,98059.44
2022-11-19T20:34:17.483Z,98051.91
2022-11-19T20:39:41.401Z,98048.63
2022-11-19T20:45:09.520Z,98053.31
2022-11-19T20:50:34.361Z,98056.91
2022-11-19T20:56:06.244Z,98062.28
2022-11-19T21:01:34.609Z,98057.34
2022-11-19T21:07:00.478Z,98051.53
2022-11-19T21:12:24.422Z,98045.50
2022-11-19T21:17:52.405Z,98051.66
2022-11-19T21:23:16.370Z,98051.72
2022-11-19T21:28:42.397Z,98038.69
2022-11-19T21:34:09.392Z,98038.63
2022-11-19T21:39:34.379Z,98040.44
2022-11-19T21:44:58.421Z,98037.03
2022-11-19T21:50:27.407Z,98024.66
2022-11-19T21:55:59.401Z,98023.88
2022-11-19T22:01:25.429Z,98014.50
2022-11-19T22:06:53.538Z,98017.47
2022-11-19T22:12:18.436Z,98001.13
2022-11-19T22:17:42.475Z,97992.56
2022-11-19T22:23:10.443Z,97992.59
2022-11-19T22:28:34.528Z,97995.38
2022-11-19T22:34:00.441Z,97987.66
2022-11-19T22:39:28.421Z,97996.41
2022-11-19T22:44:53.432Z,97987.75
2022-11-19T22:50:17.460Z,97987.88
2022-11-19T22:55:53.418Z,97988.03
2022-11-19T23:01:25.521Z,97993.41
2022-11-19T23:06:50.433Z,97995.09
2022-11-19T23:12:30.470Z,97998.72
2022-11-19T23:17:58.458Z,97993.59
2022-11-19T23:23:23.444Z,97996.47
2022-11-19T23:28:51.453Z,97997.44
2022-11-19T23:34:17.421Z,98003.69
2022-11-19T23:39:42.433Z,97992.53
2022-11-19T23:45:10.445Z,97991.72
2022-11-19T23:50:35.689Z,97976.16
2022-11-19T23:56:07.624Z,97977.91
